sensor_id;sensor_type;location;lat;lon;timestamp;pressure;altitude;pressure_sealevel;temperature;humidity
60479;BME280;46321;48.398;11.754;2022-08-01T00:00:18;96514.47;;;19.72;64.98
60479;BME280;46321;48.398;11.754;2022-08-01T00:02:44;96505.50;;;19.66;65.32
60479;BME280;46321;48.398;11.754;2022-08-01T00:05:09;96510.63;;;19.67;65.23
60479;BME280;46321;48.398;11.754;2022-08-01T00:07:36;96502.34;;;19.69;64.22
60479;BME280;46321;48.398;11.754;2022-08-01T00:10:07;96505.97;;;19.75;63.89
60479;BME280;46321;48.398;11.754;2022-08-01T00:12:33;96499.06;;;19.67;64.05
60479;BME280;46321;48.398;11.754;2022-08-01T00:14:58;96502.00;;;19.65;63.89
60479;BME280;46321;48.398;11.754;2022-08-01T00:17:23;96501.16;;;19.65;63.97
60479;BME280;46321;48.398;11.754;2022-08-01T00:19:48;96506.19;;;19.61;63.76
60479;BME280;46321;48.398;11.754;2022-08-01T00:22:14;96503.16;;;19.58;64.12
60479;BME280;46321;48.398;11.754;2022-08-01T00:24:39;96501.28;;;19.58;63.93
60479;BME280;46321;48.398;11.754;2022-08-01T00:27:04;96506.91;;;19.56;63.40
60479;BME280;46321;48.398;11.754;2022-08-01T00:29:30;96509.22;;;19.53;64.44
60479;BME280;46321;48.398;11.754;2022-08-01T00:31:55;96505.59;;;19.47;65.07
60479;BME280;46321;48.398;11.754;2022-08-01T00:34:20;96516.22;;;19.42;64.47
60479;BME280;46321;48.398;11.754;2022-08-01T00:36:46;96507.22;;;19.36;64.95
60479;BME280;46321;48.398;11.754;2022-08-01T00:39:11;96514.59;;;19.41;64.13
60479;BME280;46321;48.398;11.754;2022-08-01T00:41:37;96512.94;;;19.28;64.31
60479;BME280;46321;48.398;11.754;2022-08-01T00:44:04;96508.59;;;19.27;64.63
60479;BME280;46321;48.398;11.754;2022-08-01T00:46:30;96512.59;;;19.24;64.22
60479;BME280;46321;48.398;11.754;2022-08-01T00:48:55;96516.06;;;19.25;63.96
60479;BME280;46321;48.398;11.754;2022-08-01T00:51:22;96512.44;;;19.19;63.93
60479;BME280;46321;48.398;11.754;2022-08-01T00:53:47;96512.53;;;19.12;64.19
60479;BME280;46321;48.398;11.754;2022-08-01T00:56:13;96508.66;;;19.08;64.13
60479;BME280;46321;48.398;11.754;2022-08-01T00:58:39;96508.09;;;19.06;64.07
60479;BME280;46321;48.398;11.754;2022-08-01T01:01:04;96511.81;;;19.05;63.61
60479;BME280;46321;48.398;11.754;2022-08-01T01:03:29;96507.25;;;19.05;63.66
60479;BME280;46321;48.398;11.754;2022-08-01T01:08:32;96504.72;;;19.10;63.11
60479;BME280;46321;48.398;11.754;2022-08-01T01:11:28;96506.00;;;19.08;63.47
60479;BME280;46321;48.398;11.754;2022-08-01T01:14:04;96511.69;;;18.99;63.63
60479;BME280;46321;48.398;11.754;2022-08-01T01:16:35;96509.44;;;18.96;63.38
60479;BME280;46321;48.398;11.754;2022-08-01T01:19:04;96510.47;;;18.95;63.78
60479;BME280;46321;48.398;11.754;2022-08-01T01:21:42;96520.88;;;18.92;63.68
60479;BME280;46321;48.398;11.754;2022-08-01T01:30:10;96516.59;;;18.72;64.03
60479;BME280;46321;48.398;11.754;2022-08-01T01:32:39;96518.47;;;18.71;64.32
60479;BME280;46321;48.398;11.754;2022-08-01T01:35:09;96514.44;;;18.62;64.90
60479;BME280;46321;48.398;11.754;2022-08-01T01:37:38;96508.72;;;18.58;65.15
60479;BME280;46321;48.398;11.754;2022-08-01T01:40:05;96511.41;;;18.58;64.72
60479;BME280;46321;48.398;11.754;2022-08-01T01:42:32;96514.91;;;18.59;64.87
60479;BME280;46321;48.398;11.754;2022-08-01T01:44:58;96518.63;;;18.58;64.51
60479;BME280;46321;48.398;11.754;2022-08-01T01:47:27;96513.94;;;18.53;64.66
60479;BME280;46321;48.398;11.754;2022-08-01T01:49:53;96514.78;;;18.53;64.58
60479;BME280;46321;48.398;11.754;2022-08-01T01:52:21;96514.69;;;18.60;64.55
60479;BME280;46321;48.398;11.754;2022-08-01T01:54:50;96509.41;;;18.53;64.66
60479;BME280;46321;48.398;11.754;2022-08-01T01:57:17;96509.06;;;18.50;64.50
60479;BME280;46321;48.398;11.754;2022-08-01T01:59:44;96511.16;;;18.48;64.72
60479;BME280;46321;48.398;11.754;2022-08-01T02:02:09;96516.72;;;18.46;64.95
60479;BME280;46321;48.398;11.754;2022-08-01T02:04:40;96512.66;;;18.44;65.18
60479;BME280;46321;48.398;11.754;2022-08-01T02:07:06;96517.38;;;18.41;65.17
60479;BME280;46321;48.398;11.754;2022-08-01T02:09:35;96520.13;;;18.53;64.77
60479;BME280;46321;48.398;11.754;2022-08-01T02:12:03;96523.56;;;18.42;64.93
60479;BME280;46321;48.398;11.754;2022-08-01T02:14:32;96521.44;;;18.32;65.43
60479;BME280;46321;48.398;11.754;2022-08-01T02:16:58;96530.72;;;18.29;65.90
60479;BME280;46321;48.398;11.754;2022-08-01T02:19:24;96525.69;;;18.21;65.88
60479;BME280;46321;48.398;11.754;2022-08-01T02:21:57;96525.69;;;18.21;65.89
60479;BME280;46321;48.398;11.754;2022-08-01T02:24:35;96527.56;;;18.14;65.89
60479;BME280;46321;48.398;11.754;2022-08-01T02:27:06;96529.66;;;18.12;66.19
60479;BME280;46321;48.398;11.754;2022-08-01T02:29:51;96531.28;;;18.13;66.28
60479;BME280;46321;48.398;11.754;2022-08-01T02:32:26;96531.75;;;18.10;66.53
60479;BME280;46321;48.398;11.754;2022-08-01T02:34:53;96537.81;;;18.17;65.72
60479;BME280;46321;48.398;11.754;2022-08-01T02:37:21;96537.91;;;18.10;66.06
60479;BME280;46321;48.398;11.754;2022-08-01T02:39:51;96532.19;;;18.06;66.13
60479;BME280;46321;48.398;11.754;2022-08-01T02:42:18;96533.66;;;18.02;66.41
60479;BME280;46321;48.398;11.754;2022-08-01T02:44:44;96532.47;;;17.98;66.46
60479;BME280;46321;48.398;11.754;2022-08-01T02:47:12;96528.63;;;17.94;66.22
60479;BME280;46321;48.398;11.754;2022-08-01T02:49:42;96531.50;;;17.92;66.52
60479;BME280;46321;48.398;11.754;2022-08-01T02:52:13;96543.50;;;17.90;66.41
60479;BME280;46321;48.398;11.754;2022-08-01T02:54:39;96533.44;;;17.85;66.68
60479;BME280;46321;48.398;11.754;2022-08-01T02:57:06;96535.22;;;17.91;66.15
60479;BME280;46321;48.398;11.754;2022-08-01T02:59:33;96539.16;;;17.89;66.62
60479;BME280;46321;48.398;11.754;2022-08-01T03:02:01;96540.28;;;17.81;66.94
60479;BME280;46321;48.398;11.754;2022-08-01T03:04:27;96538.84;;;17.78;66.78
60479;BME280;46321;48.398;11.754;2022-08-01T03:06:55;96536.97;;;17.79;66.80
60479;BME280;46321;48.398;11.754;2022-08-01T03:09:25;96540.88;;;17.83;66.23
60479;BME280;46321;48.398;11.754;2022-08-01T03:11:52;96538.63;;;17.80;66.24
60479;BME280;46321;48.398;11.754;2022-08-01T03:14:20;96545.63;;;17.81;66.35
60479;BME280;46321;48.398;11.754;2022-08-01T03:16:47;96550.16;;;17.80;66.48
60479;BME280;46321;48.398;11.754;2022-08-01T03:19:15;96552.25;;;17.78;66.53
60479;BME280;46321;48.398;11.754;2022-08-01T03:21:43;96548.13;;;17.76;67.04
60479;BME280;46321;48.398;11.754;2022-08-01T03:24:10;96548.91;;;17.83;66.50
60479;BME280;46321;48.398;11.754;2022-08-01T03:26:38;96552.25;;;17.78;66.54
60479;BME280;46321;48.398;11.754;2022-08-01T03:29:06;96552.06;;;17.73;67.15
60479;BME280;46321;48.398;11.754;2022-08-01T03:31:34;96561.34;;;17.70;67.10
60479;BME280;46321;48.398;11.754;2022-08-01T03:34:00;96556.47;;;17.67;67.49
60479;BME280;46321;48.398;11.754;2022-08-01T03:36:28;96555.22;;;17.63;67.37
60479;BME280;46321;48.398;11.754;2022-08-01T03:38:56;96563.94;;;17.58;67.23
60479;BME280;46321;48.398;11.754;2022-08-01T03:41:24;96560.50;;;17.51;67.79
60479;BME280;46321;48.398;11.754;2022-08-01T03:44:00;96561.09;;;17.53;67.31
60479;BME280;46321;48.398;11.754;2022-08-01T03:46:32;96558.03;;;17.49;66.92
60479;BME280;46321;48.398;11.754;2022-08-01T03:49:00;96568.75;;;17.49;67.53
60479;BME280;46321;48.398;11.754;2022-08-01T03:51:29;96566.44;;;17.53;67.57
60479;BME280;46321;48.398;11.754;2022-08-01T03:53:56;96572.56;;;17.60;66.56
60479;BME280;46321;48.398;11.754;2022-08-01T03:56:25;96566.22;;;17.55;66.65
60479;BME280;46321;48.398;11.754;2022-08-01T03:58:51;96572.41;;;17.55;66.58
60479;BME280;46321;48.398;11.754;2022-08-01T04:01:17;96575.25;;;17.60;66.71
60479;BME280;46321;48.398;11.754;2022-08-01T04:03:44;96573.75;;;17.65;66.60
60479;BME280;46321;48.398;11.754;2022-08-01T04:06:09;96575.84;;;17.62;66.80
60479;BME280;46321;48.398;11.754;2022-08-01T04:08:36;96573.81;;;17.58;66.93
60479;BME280;46321;48.398;11.754;2022-08-01T04:11:02;96574.03;;;17.56;67.11
60479;BME280;46321;48.398;11.754;2022-08-01T04:13:27;96589.22;;;17.62;67.03
60479;BME280;46321;48.398;11.754;2022-08-01T04:15:53;96585.44;;;17.70;66.41
60479;BME280;46321;48.398;11.754;2022-08-01T04:18:18;96589.91;;;17.77;66.27
60479;BME280;46321;48.398;11.754;2022-08-01T04:20:46;96593.28;;;17.72;66.34
60479;BME280;46321;48.398;11.754;2022-08-01T04:23:13;96599.00;;;17.76;66.49
60479;BME280;46321;48.398;11.754;2022-08-01T04:25:39;96601.44;;;17.77;66.01
60479;BME280;46321;48.398;11.754;2022-08-01T04:28:07;96601.56;;;17.89;65.83
60479;BME280;46321;48.398;11.754;2022-08-01T04:30:37;96601.09;;;17.92;65.66
60479;BME280;46321;48.398;11.754;2022-08-01T04:33:05;96611.81;;;17.92;65.75
60479;BME280;46321;48.398;11.754;2022-08-01T04:35:33;96608.34;;;17.92;65.96
60479;BME280;46321;48.398;11.754;2022-08-01T04:38:02;96612.41;;;17.94;65.67
60479;BME280;46321;48.398;11.754;2022-08-01T04:40:29;96606.03;;;17.95;65.75
60479;BME280;46321;48.398;11.754;2022-08-01T04:42:55;96612.97;;;18.03;65.71
60479;BME280;46321;48.398;11.754;2022-08-01T04:45:21;96609.06;;;17.99;65.57
60479;BME280;46321;48.398;11.754;2022-08-01T04:47:47;96604.25;;;18.08;65.14
60479;BME280;46321;48.398;11.754;2022-08-01T04:50:13;96618.63;;;18.14;64.76
60479;BME280;46321;48.398;11.754;2022-08-01T04:52:38;96619.25;;;18.16;65.55
60479;BME280;46321;48.398;11.754;2022-08-01T04:55:05;96616.75;;;18.21;64.83
60479;BME280;46321;48.398;11.754;2022-08-01T04:57:37;96620.81;;;18.24;64.63
60479;BME280;46321;48.398;11.754;2022-08-01T05:00:04;96617.28;;;18.30;64.96
60479;BME280;46321;48.398;11.754;2022-08-01T05:02:31;96617.47;;;18.28;64.44
60479;BME280;46321;48.398;11.754;2022-08-01T05:04:57;96621.44;;;18.26;64.49
60479;BME280;46321;48.398;11.754;2022-08-01T05:07:22;96625.31;;;18.30;64.70
60479;BME280;46321;48.398;11.754;2022-08-01T05:09:47;96626.28;;;18.36;64.28
60479;BME280;46321;48.398;11.754;2022-08-01T05:12:13;96628.59;;;18.32;64.94
60479;BME280;46321;48.398;11.754;2022-08-01T05:14:38;96631.28;;;18.32;65.08
60479;BME280;46321;48.398;11.754;2022-08-01T05:17:05;96634.47;;;18.41;64.98
60479;BME280;46321;48.398;11.754;2022-08-01T05:19:32;96633.00;;;18.45;64.27
60479;BME280;46321;48.398;11.754;2022-08-01T05:22:04;96642.66;;;18.65;63.82
60479;BME280;46321;48.398;11.754;2022-08-01T05:24:30;96641.47;;;18.80;63.22
60479;BME280;46321;48.398;11.754;2022-08-01T05:26:57;96638.84;;;18.92;62.85
60479;BME280;46321;48.398;11.754;2022-08-01T05:29:23;96641.31;;;18.93;62.87
60479;BME280;46321;48.398;11.754;2022-08-01T05:31:48;96648.75;;;18.91;62.84
60479;BME280;46321;48.398;11.754;2022-08-01T05:34:13;96647.63;;;18.99;62.83
60479;BME280;46321;48.398;11.754;2022-08-01T05:36:39;96650.69;;;19.03;62.48
60479;BME280;46321;48.398;11.754;2022-08-01T05:39:05;96654.19;;;19.03;62.68
60479;BME280;46321;48.398;11.754;2022-08-01T05:41:31;96647.31;;;19.07;62.09
60479;BME280;46321;48.398;11.754;2022-08-01T05:43:56;96657.38;;;19.12;62.51
60479;BME280;46321;48.398;11.754;2022-08-01T05:46:21;96664.97;;;19.15;62.35
60479;BME280;46321;48.398;11.754;2022-08-01T05:48:47;96664.53;;;19.18;61.68
60479;BME280;46321;48.398;11.754;2022-08-01T05:51:12;96664.97;;;19.15;62.08
60479;BME280;46321;48.398;11.754;2022-08-01T05:53:37;96669.53;;;19.15;61.81
60479;BME280;46321;48.398;11.754;2022-08-01T05:56:03;96664.16;;;19.15;61.78
60479;BME280;46321;48.398;11.754;2022-08-01T05:58:28;96665.59;;;19.17;62.32
60479;BME280;46321;48.398;11.754;2022-08-01T06:00:53;96670.34;;;19.15;62.21
60479;BME280;46321;48.398;11.754;2022-08-01T06:03:19;96673.19;;;19.20;62.34
60479;BME280;46321;48.398;11.754;2022-08-01T06:05:44;96671.91;;;19.23;62.21
60479;BME280;46321;48.398;11.754;2022-08-01T06:08:10;96676.25;;;19.24;61.74
60479;BME280;46321;48.398;11.754;2022-08-01T06:10:35;96680.78;;;19.24;61.89
60479;BME280;46321;48.398;11.754;2022-08-01T06:13:00;96681.81;;;19.22;62.06
60479;BME280;46321;48.398;11.754;2022-08-01T06:15:28;96681.03;;;19.22;62.15
60479;BME280;46321;48.398;11.754;2022-08-01T06:17:54;96685.09;;;19.25;61.31
60479;BME280;46321;48.398;11.754;2022-08-01T06:20:19;96683.25;;;19.25;61.50
60479;BME280;46321;48.398;11.754;2022-08-01T06:22:45;96686.91;;;19.31;61.87
60479;BME280;46321;48.398;11.754;2022-08-01T06:25:10;96683.97;;;19.32;61.36
60479;BME280;46321;48.398;11.754;2022-08-01T06:27:35;96685.41;;;19.35;62.08
60479;BME280;46321;48.398;11.754;2022-08-01T06:30:00;96692.75;;;19.40;62.07
60479;BME280;46321;48.398;11.754;2022-08-01T06:32:26;96689.28;;;19.51;62.26
60479;BME280;46321;48.398;11.754;2022-08-01T06:34:52;96687.91;;;19.61;61.54
60479;BME280;46321;48.398;11.754;2022-08-01T06:37:17;96690.66;;;19.73;61.34
60479;BME280;46321;48.398;11.754;2022-08-01T06:39:42;96690.44;;;19.86;62.35
60479;BME280;46321;48.398;11.754;2022-08-01T06:42:08;96697.13;;;20.08;61.27
60479;BME280;46321;48.398;11.754;2022-08-01T06:44:34;96694.28;;;20.33;61.09
60479;BME280;46321;48.398;11.754;2022-08-01T06:46:59;96688.06;;;20.69;59.74
60479;BME280;46321;48.398;11.754;2022-08-01T06:49:25;96684.41;;;20.87;58.30
60479;BME280;46321;48.398;11.754;2022-08-01T06:51:51;96689.50;;;21.13;59.03
60479;BME280;46321;48.398;11.754;2022-08-01T06:54:16;96695.44;;;21.27;58.11
60479;BME280;46321;48.398;11.754;2022-08-01T06:56:42;96692.97;;;21.55;57.61
60479;BME280;46321;48.398;11.754;2022-08-01T06:59:08;96689.59;;;21.77;56.35
60479;BME280;46321;48.398;11.754;2022-08-01T07:01:33;96684.66;;;22.03;56.94
60479;BME280;46321;48.398;11.754;2022-08-01T07:03:58;96684.41;;;22.22;55.14
60479;BME280;46321;48.398;11.754;2022-08-01T07:06:24;96689.78;;;22.39;53.12
60479;BME280;46321;48.398;11.754;2022-08-01T07:08:51;96691.13;;;22.59;55.51
60479;BME280;46321;48.398;11.754;2022-08-01T07:11:16;96688.69;;;22.74;53.43
60479;BME280;46321;48.398;11.754;2022-08-01T07:13:42;96686.50;;;22.94;53.07
60479;BME280;46321;48.398;11.754;2022-08-01T07:16:07;96689.97;;;23.12;52.10
60479;BME280;46321;48.398;11.754;2022-08-01T07:18:32;96683.91;;;23.27;51.48
60479;BME280;46321;48.398;11.754;2022-08-01T07:20:57;96690.78;;;23.40;51.37
60479;BME280;46321;48.398;11.754;2022-08-01T07:23:23;96687.78;;;23.59;52.62
60479;BME280;46321;48.398;11.754;2022-08-01T07:25:49;96677.13;;;23.74;51.55
60479;BME280;46321;48.398;11.754;2022-08-01T07:28:16;96684.28;;;23.91;50.34
60479;BME280;46321;48.398;11.754;2022-08-01T07:30:41;96694.16;;;24.08;50.37
60479;BME280;46321;48.398;11.754;2022-08-01T07:33:07;96688.91;;;24.29;50.22
60479;BME280;46321;48.398;11.754;2022-08-01T07:35:33;96690.38;;;24.42;49.17
60479;BME280;46321;48.398;11.754;2022-08-01T07:37:59;96685.31;;;24.56;48.56
60479;BME280;46321;48.398;11.754;2022-08-01T07:40:24;96689.16;;;24.65;48.64
60479;BME280;46321;48.398;11.754;2022-08-01T07:42:49;96686.25;;;24.77;48.85
60479;BME280;46321;48.398;11.754;2022-08-01T07:45:15;96686.56;;;24.91;47.89
60479;BME280;46321;48.398;11.754;2022-08-01T07:47:40;96688.31;;;25.13;48.67
60479;BME280;46321;48.398;11.754;2022-08-01T07:50:07;96683.81;;;25.40;48.02
60479;BME280;46321;48.398;11.754;2022-08-01T07:52:32;96690.59;;;25.64;46.32
60479;BME280;46321;48.398;11.754;2022-08-01T07:54:58;96682.25;;;25.76;46.76
60479;BME280;46321;48.398;11.754;2022-08-01T07:57:24;96678.72;;;25.75;45.81
60479;BME280;46321;48.398;11.754;2022-08-01T07:59:50;96678.72;;;26.01;45.49
60479;BME280;46321;48.398;11.754;2022-08-01T08:02:16;96681.19;;;26.13;46.52
60479;BME280;46321;48.398;11.754;2022-08-01T08:04:41;96681.97;;;26.35;44.92
60479;BME280;46321;48.398;11.754;2022-08-01T08:07:06;96677.38;;;26.40;44.63
60479;BME280;46321;48.398;11.754;2022-08-01T08:09:32;96676.28;;;26.52;44.90
60479;BME280;46321;48.398;11.754;2022-08-01T08:11:57;96675.41;;;26.72;44.46
60479;BME280;46321;48.398;11.754;2022-08-01T08:14:23;96674.75;;;27.12;44.13
60479;BME280;46321;48.398;11.754;2022-08-01T08:16:49;96672.75;;;27.28;43.05
60479;BME280;46321;48.398;11.754;2022-08-01T08:19:14;96664.84;;;27.37;42.50
60479;BME280;46321;48.398;11.754;2022-08-01T08:21:40;96673.72;;;27.48;41.99
60479;BME280;46321;48.398;11.754;2022-08-01T08:24:06;96671.16;;;27.67;41.81
60479;BME280;46321;48.398;11.754;2022-08-01T08:26:52;96663.09;;;27.52;41.67
60479;BME280;46321;48.398;11.754;2022-08-01T08:29:19;96665.66;;;27.78;41.12
60479;BME280;46321;48.398;11.754;2022-08-01T08:31:45;96659.00;;;28.00;40.99
60479;BME280;46321;48.398;11.754;2022-08-01T08:34:11;96667.59;;;28.07;41.05
60479;BME280;46321;48.398;11.754;2022-08-01T08:36:37;96664.31;;;28.40;41.27
60479;BME280;46321;48.398;11.754;2022-08-01T08:39:02;96664.47;;;28.54;39.72
60479;BME280;46321;48.398;11.754;2022-08-01T08:41:32;96663.53;;;28.89;39.13
60479;BME280;46321;48.398;11.754;2022-08-01T08:43:57;96664.59;;;28.93;38.21
60479;BME280;46321;48.398;11.754;2022-08-01T08:46:26;96661.19;;;29.26;38.81
60479;BME280;46321;48.398;11.754;2022-08-01T08:48:53;96667.94;;;29.73;39.00
60479;BME280;46321;48.398;11.754;2022-08-01T08:51:19;96654.63;;;29.85;38.85
60479;BME280;46321;48.398;11.754;2022-08-01T08:53:46;96658.34;;;30.42;36.98
60479;BME280;46321;48.398;11.754;2022-08-01T08:56:12;96653.59;;;30.14;36.92
60479;BME280;46321;48.398;11.754;2022-08-01T08:58:39;96656.34;;;30.14;36.55
60479;BME280;46321;48.398;11.754;2022-08-01T09:01:06;96664.31;;;30.58;36.22
60479;BME280;46321;48.398;11.754;2022-08-01T09:03:33;96664.31;;;30.86;35.08
60479;BME280;46321;48.398;11.754;2022-08-01T09:05:59;96661.91;;;30.99;34.61
60479;BME280;46321;48.398;11.754;2022-08-01T09:08:24;96665.63;;;30.61;35.28
60479;BME280;46321;48.398;11.754;2022-08-01T09:10:49;96655.31;;;30.72;34.72
60479;BME280;46321;48.398;11.754;2022-08-01T09:13:15;96654.00;;;31.12;35.22
60479;BME280;46321;48.398;11.754;2022-08-01T09:15:48;96654.78;;;31.26;35.16
60479;BME280;46321;48.398;11.754;2022-08-01T09:18:30;96658.44;;;32.28;33.16
60479;BME280;46321;48.398;11.754;2022-08-01T09:21:20;96660.00;;;32.52;31.96
60479;BME280;46321;48.398;11.754;2022-08-01T09:23:55;96666.50;;;32.33;32.17
60479;BME280;46321;48.398;11.754;2022-08-01T09:26:32;96659.00;;;31.93;32.22
60479;BME280;46321;48.398;11.754;2022-08-01T09:28:58;96659.81;;;31.93;32.94
60479;BME280;46321;48.398;11.754;2022-08-01T09:31:26;96653.69;;;32.74;31.54
60479;BME280;46321;48.398;11.754;2022-08-01T09:33:56;96663.03;;;32.41;31.68
60479;BME280;46321;48.398;11.754;2022-08-01T09:36:26;96651.72;;;32.34;31.36
60479;BME280;46321;48.398;11.754;2022-08-01T09:38:54;96661.72;;;32.71;31.37
60479;BME280;46321;48.398;11.754;2022-08-01T09:41:31;96659.16;;;32.74;31.88
60479;BME280;46321;48.398;11.754;2022-08-01T09:43:57;96665.19;;;33.03;31.05
60479;BME280;46321;48.398;11.754;2022-08-01T09:46:23;96657.22;;;33.60;30.02
60479;BME280;46321;48.398;11.754;2022-08-01T09:48:56;96658.34;;;33.50;30.76
60479;BME280;46321;48.398;11.754;2022-08-01T09:51:34;96655.75;;;33.45;29.88
60479;BME280;46321;48.398;11.754;2022-08-01T09:54:00;96651.56;;;33.30;30.13
60479;BME280;46321;48.398;11.754;2022-08-01T09:56:38;96656.00;;;32.99;30.80
60479;BME280;46321;48.398;11.754;2022-08-01T09:59:05;96652.06;;;33.94;29.55
60479;BME280;46321;48.398;11.754;2022-08-01T10:01:48;96644.63;;;34.91;27.93
60479;BME280;46321;48.398;11.754;2022-08-01T10:04:19;96653.06;;;34.46;27.96
60479;BME280;46321;48.398;11.754;2022-08-01T10:06:47;96651.34;;;35.02;27.58
60479;BME280;46321;48.398;11.754;2022-08-01T10:09:32;96640.81;;;35.04;27.37
60479;BME280;46321;48.398;11.754;2022-08-01T10:11:59;96636.63;;;36.39;25.92
60479;BME280;46321;48.398;11.754;2022-08-01T10:14:26;96633.88;;;36.64;25.80
60479;BME280;46321;48.398;11.754;2022-08-01T10:16:52;96636.72;;;37.06;25.60
60479;BME280;46321;48.398;11.754;2022-08-01T10:19:22;96629.50;;;36.88;25.28
60479;BME280;46321;48.398;11.754;2022-08-01T10:21:49;96632.19;;;35.58;25.70
60479;BME280;46321;48.398;11.754;2022-08-01T10:24:19;96627.59;;;34.19;27.20
60479;BME280;46321;48.398;11.754;2022-08-01T10:26:48;96628.38;;;34.77;28.11
60479;BME280;46321;48.398;11.754;2022-08-01T10:29:15;96625.63;;;34.37;26.87
60479;BME280;46321;48.398;11.754;2022-08-01T10:31:43;96629.75;;;34.04;28.12
60479;BME280;46321;48.398;11.754;2022-08-01T10:34:08;96625.28;;;33.55;28.07
60479;BME280;46321;48.398;11.754;2022-08-01T10:36:35;96621.19;;;34.06;27.89
60479;BME280;46321;48.398;11.754;2022-08-01T10:39:05;96623.78;;;34.02;27.66
60479;BME280;46321;48.398;11.754;2022-08-01T10:41:33;96615.38;;;33.99;28.11
60479;BME280;46321;48.398;11.754;2022-08-01T10:44:00;96623.16;;;33.25;29.01
60479;BME280;46321;48.398;11.754;2022-08-01T10:46:26;96612.19;;;33.34;30.37
60479;BME280;46321;48.398;11.754;2022-08-01T10:49:01;96608.50;;;33.57;28.69
60479;BME280;46321;48.398;11.754;2022-08-01T10:51:28;96602.38;;;33.51;28.84
60479;BME280;46321;48.398;11.754;2022-08-01T10:53:54;96603.09;;;32.81;30.19
60479;BME280;46321;48.398;11.754;2022-08-01T10:56:23;96597.16;;;32.96;30.22
60479;BME280;46321;48.398;11.754;2022-08-01T10:58:49;96603.34;;;32.20;30.08
60479;BME280;46321;48.398;11.754;2022-08-01T11:03:41;96598.72;;;32.30;30.70
60479;BME280;46321;48.398;11.754;2022-08-01T11:06:07;96591.50;;;32.43;31.33
60479;BME280;46321;48.398;11.754;2022-08-01T11:08:42;96595.00;;;32.26;29.97
60479;BME280;46321;48.398;11.754;2022-08-01T11:11:15;96597.66;;;31.62;32.40
60479;BME280;46321;48.398;11.754;2022-08-01T11:16:34;96568.56;;;31.89;31.87
60479;BME280;46321;48.398;11.754;2022-08-01T11:19:00;96586.13;;;31.65;31.22
60479;BME280;46321;48.398;11.754;2022-08-01T11:27:29;96580.28;;;31.43;32.42
60479;BME280;46321;48.398;11.754;2022-08-01T11:35:13;96572.47;;;30.77;32.10
60479;BME280;46321;48.398;11.754;2022-08-01T11:37:38;96568.00;;;30.81;33.38
60479;BME280;46321;48.398;11.754;2022-08-01T11:40:26;96566.69;;;30.78;32.60
60479;BME280;46321;48.398;11.754;2022-08-01T11:43:18;96562.50;;;30.44;32.03
60479;BME280;46321;48.398;11.754;2022-08-01T11:45:55;96565.03;;;30.40;32.31
60479;BME280;46321;48.398;11.754;2022-08-01T11:48:22;96564.59;;;30.47;32.93
60479;BME280;46321;48.398;11.754;2022-08-01T11:50:50;96556.03;;;30.39;32.90
60479;BME280;46321;48.398;11.754;2022-08-01T11:53:15;96564.00;;;30.36;31.81
60479;BME280;46321;48.398;11.754;2022-08-01T11:55:50;96564.78;;;30.08;31.59
60479;BME280;46321;48.398;11.754;2022-08-01T11:58:21;96572.75;;;30.04;33.00
60479;BME280;46321;48.398;11.754;2022-08-01T12:00:54;96568.31;;;30.09;32.60
60479;BME280;46321;48.398;11.754;2022-08-01T12:03:25;96568.66;;;30.35;32.62
60479;BME280;46321;48.398;11.754;2022-08-01T12:05:52;96563.31;;;30.44;31.98
60479;BME280;46321;48.398;11.754;2022-08-01T12:08:25;96566.00;;;30.72;32.47
60479;BME280;46321;48.398;11.754;2022-08-01T12:10:51;96557.28;;;30.84;32.45
60479;BME280;46321;48.398;11.754;2022-08-01T12:13:17;96560.72;;;31.04;32.70
60479;BME280;46321;48.398;11.754;2022-08-01T12:15:45;96552.00;;;31.02;32.18
60479;BME280;46321;48.398;11.754;2022-08-01T12:18:10;96553.63;;;31.03;31.93
60479;BME280;46321;48.398;11.754;2022-08-01T12:20:38;96556.84;;;31.05;31.37
60479;BME280;46321;48.398;11.754;2022-08-01T12:23:06;96542.44;;;30.91;31.81
60479;BME280;46321;48.398;11.754;2022-08-01T12:25:32;96554.06;;;30.82;33.17
60479;BME280;46321;48.398;11.754;2022-08-01T12:28:03;96547.06;;;30.90;32.80
60479;BME280;46321;48.398;11.754;2022-08-01T12:30:30;96544.84;;;30.92;32.58
60479;BME280;46321;48.398;11.754;2022-08-01T12:33:07;96546.25;;;30.90;32.95
60479;BME280;46321;48.398;11.754;2022-08-01T12:35:35;96551.75;;;30.76;33.98
60479;BME280;46321;48.398;11.754;2022-08-01T12:38:04;96556.69;;;30.73;33.49
60479;BME280;46321;48.398;11.754;2022-08-01T12:40:35;96554.91;;;30.40;33.73
60479;BME280;46321;48.398;11.754;2022-08-01T12:43:05;96554.25;;;30.01;33.15
60479;BME280;46321;48.398;11.754;2022-08-01T12:48:00;96550.06;;;29.76;34.32
60479;BME280;46321;48.398;11.754;2022-08-01T12:50:29;96556.56;;;29.94;35.27
60479;BME280;46321;48.398;11.754;2022-08-01T12:52:56;96560.13;;;30.09;33.64
60479;BME280;46321;48.398;11.754;2022-08-01T12:55:26;96544.66;;;30.04;33.90
60479;BME280;46321;48.398;11.754;2022-08-01T12:58:04;96548.56;;;29.98;33.78
60479;BME280;46321;48.398;11.754;2022-08-01T13:00:30;96541.91;;;29.90;33.20
60479;BME280;46321;48.398;11.754;2022-08-01T13:03:07;96542.22;;;29.88;33.94
60479;BME280;46321;48.398;11.754;2022-08-01T13:08:29;96538.19;;;30.00;34.54
60479;BME280;46321;48.398;11.754;2022-08-01T13:11:01;96531.22;;;30.08;34.48
60479;BME280;46321;48.398;11.754;2022-08-01T13:13:37;96530.72;;;30.05;34.39
60479;BME280;46321;48.398;11.754;2022-08-01T13:16:04;96530.50;;;30.16;34.80
60479;BME280;46321;48.398;11.754;2022-08-01T13:18:32;96529.00;;;30.10;34.28
60479;BME280;46321;48.398;11.754;2022-08-01T13:23:41;96525.25;;;29.91;33.98
60479;BME280;46321;48.398;11.754;2022-08-01T13:26:06;96532.38;;;29.73;33.83